createdAt,value
2022-12-25T00:00:20.414Z,7.06
2022-12-25T00:05:12.595Z,7.01
2022-12-25T00:10:04.738Z,7.02
2022-12-25T00:14:56.340Z,6.99
2022-12-25T00:19:48.041Z,6.95
2022-12-25T00:24:40.154Z,6.92
2022-12-25T00:29:31.887Z,6.89
2022-12-25T00:34:23.634Z,6.90
2022-12-25T00:39:15.283Z,6.93
2022-12-25T00:44:09.066Z,6.97
2022-12-25T00:49:01.435Z,7.05
2022-12-25T00:53:53.115Z,7.09
2022-12-25T00:58:44.751Z,7.12
2022-12-25T01:03:36.374Z,7.13
2022-12-25T01:08:30.485Z,7.17
2022-12-25T01:13:22.293Z,7.19
2022-12-25T01:18:13.997Z,7.19
2022-12-25T01:23:05.788Z,7.21
2022-12-25T01:27:57.470Z,7.20
2022-12-25T01:32:49.229Z,7.19
2022-12-25T01:37:41.116Z,7.15
2022-12-25T01:42:32.904Z,7.08
2022-12-25T01:47:24.685Z,7.03
2022-12-25T01:52:24.171Z,7.02
2022-12-25T01:57:23.979Z,7.03
2022-12-25T02:02:16.267Z,7.03
2022-12-25T02:07:11.639Z,7.01
2022-12-25T02:12:04.315Z,6.97
2022-12-25T02:17:22.360Z,6.93
2022-12-25T02:22:45.168Z,6.88
2022-12-25T02:28:16.198Z,6.82
2022-12-25T02:33:33.406Z,6.80
2022-12-25T02:38:33.747Z,6.83
2022-12-25T02:44:04.955Z,6.87
2022-12-25T02:49:18.569Z,6.89
2022-12-25T02:54:32.939Z,6.90
2022-12-25T02:59:45.517Z,6.88
2022-12-25T03:04:58.049Z,6.83
2022-12-25T03:10:15.175Z,6.84
2022-12-25T03:15:29.643Z,6.80
2022-12-25T03:20:40.424Z,6.77
2022-12-25T03:25:51.470Z,6.74
2022-12-25T03:31:35.553Z,6.72
2022-12-25T03:37:04.078Z,6.64
2022-12-25T03:42:19.482Z,6.62
2022-12-25T03:47:37.221Z,6.64
2022-12-25T03:52:50.201Z,6.67
2022-12-25T03:58:00.313Z,6.65
2022-12-25T04:03:10.501Z,6.64
2022-12-25T04:08:21.097Z,6.67
2022-12-25T04:13:51.499Z,6.69
2022-12-25T04:19:01.806Z,6.72
2022-12-25T04:24:12.109Z,6.73
2022-12-25T04:29:22.403Z,6.75
2022-12-25T04:34:33.071Z,6.76
2022-12-25T04:39:24.710Z,6.75
2022-12-25T04:44:16.401Z,6.75
2022-12-25T04:49:08.124Z,6.75
2022-12-25T04:53:59.903Z,6.71
2022-12-25T04:58:51.664Z,6.71
2022-12-25T05:03:43.592Z,6.70
2022-12-25T05:08:36.582Z,6.69
2022-12-25T05:13:28.280Z,6.68
2022-12-25T05:18:20.008Z,6.64
2022-12-25T05:23:12.328Z,6.64
2022-12-25T05:28:04.199Z,6.65
2022-12-25T05:32:55.900Z,6.61
2022-12-25T05:37:48.673Z,6.59
2022-12-25T05:42:40.404Z,6.56
2022-12-25T05:47:32.043Z,6.55
2022-12-25T05:52:23.921Z,6.53
2022-12-25T05:57:15.619Z,6.50
2022-12-25T06:02:07.645Z,6.51
2022-12-25T06:06:59.314Z,6.48
2022-12-25T06:11:51.047Z,6.49
2022-12-25T06:16:43.075Z,6.47
2022-12-25T06:21:35.018Z,6.44
2022-12-25T06:26:27.059Z,6.44
2022-12-25T06:31:24.287Z,6.42
2022-12-25T06:36:18.652Z,6.41
2022-12-25T06:41:13.180Z,6.40
2022-12-25T06:46:11.847Z,6.40
2022-12-25T06:51:04.331Z,6.40
2022-12-25T06:56:06.397Z,6.40
2022-12-25T07:00:59.068Z,6.40
2022-12-25T07:05:51.012Z,6.38
2022-12-25T07:10:43.492Z,6.38
2022-12-25T07:15:35.191Z,6.36
2022-12-25T07:20:26.933Z,6.35
2022-12-25T07:25:18.679Z,6.37
2022-12-25T07:30:11.028Z,6.36
2022-12-25T07:35:02.759Z,6.35
2022-12-25T07:39:54.453Z,6.34
2022-12-25T07:44:46.173Z,6.31
2022-12-25T07:49:37.828Z,6.32
2022-12-25T07:54:29.596Z,6.30
2022-12-25T07:59:21.363Z,6.31
2022-12-25T08:04:13.168Z,6.31
2022-12-25T08:09:08.047Z,6.32
2022-12-25T08:13:59.738Z,6.33
2022-12-25T08:18:51.801Z,6.33
2022-12-25T08:23:45.346Z,6.35
2022-12-25T08:28:37.480Z,6.36
2022-12-25T08:33:29.185Z,6.36
2022-12-25T08:38:20.825Z,6.37
2022-12-25T08:43:12.590Z,6.41
2022-12-25T08:48:04.235Z,6.41
2022-12-25T08:52:55.864Z,6.45
2022-12-25T08:57:47.589Z,6.49
2022-12-25T09:02:39.430Z,6.52
2022-12-25T09:07:31.133Z,6.57
2022-12-25T09:12:22.867Z,6.65
2022-12-25T09:17:14.455Z,6.71
2022-12-25T09:22:06.276Z,6.75
2022-12-25T09:26:57.847Z,6.83
2022-12-25T09:31:49.521Z,6.89
2022-12-25T09:36:41.235Z,6.94
2022-12-25T09:41:53.158Z,6.98
2022-12-25T09:46:54.029Z,7.04
2022-12-25T09:51:50.786Z,7.11
2022-12-25T09:56:42.531Z,7.14
2022-12-25T10:01:42.612Z,7.23
2022-12-25T10:06:48.766Z,7.30
2022-12-25T10:11:43.110Z,7.37
2022-12-25T10:16:43.772Z,7.45
2022-12-25T10:21:36.054Z,7.50
2022-12-25T10:26:31.761Z,7.56
2022-12-25T10:31:26.404Z,7.61
2022-12-25T10:36:20.392Z,7.66
2022-12-25T10:41:31.632Z,7.71
2022-12-25T10:46:26.586Z,7.74
2022-12-25T10:51:27.843Z,7.82
2022-12-25T10:56:20.102Z,7.88
2022-12-25T11:01:12.844Z,7.96
2022-12-25T11:06:05.789Z,8.01
2022-12-25T11:11:09.228Z,8.09
2022-12-25T11:16:07.440Z,8.17
2022-12-25T11:21:03.726Z,8.28
2022-12-25T11:25:59.863Z,8.33
2022-12-25T11:30:56.669Z,8.36
2022-12-25T11:35:53.088Z,8.39
2022-12-25T11:40:48.933Z,8.39
2022-12-25T11:45:49.251Z,8.43
2022-12-25T11:50:46.716Z,8.51
2022-12-25T11:55:46.324Z,8.56
2022-12-25T12:00:38.362Z,8.60
2022-12-25T12:05:37.618Z,8.65
2022-12-25T12:10:37.623Z,8.63
2022-12-25T12:15:41.421Z,8.66
2022-12-25T12:20:35.206Z,8.77
2022-12-25T12:25:28.151Z,8.88
2022-12-25T12:30:29.915Z,8.95
2022-12-25T12:35:28.663Z,9.06
2022-12-25T12:40:52.186Z,9.27
2022-12-25T12:45:43.975Z,9.38
2022-12-25T12:50:37.045Z,9.40
2022-12-25T12:55:30.914Z,9.41
2022-12-25T13:00:22.531Z,9.39
2022-12-25T13:05:19.530Z,9.41
2022-12-25T13:10:23.302Z,9.42
2022-12-25T13:15:15.301Z,9.43
2022-12-25T13:20:18.501Z,9.43
2022-12-25T13:25:22.640Z,9.47
2022-12-25T13:30:19.255Z,9.46
2022-12-25T13:35:15.690Z,9.46
2022-12-25T13:40:19.154Z,9.43
2022-12-25T13:45:13.757Z,9.41
2022-12-25T13:50:14.352Z,9.41
2022-12-25T13:55:13.245Z,9.42
2022-12-25T14:00:16.211Z,9.36
2022-12-25T14:05:37.968Z,9.35
2022-12-25T14:10:38.146Z,9.29
2022-12-25T14:15:32.150Z,9.26
2022-12-25T14:20:27.841Z,9.22
2022-12-25T14:25:21.123Z,9.19
2022-12-25T14:30:13.657Z,9.14
2022-12-25T14:35:06.177Z,9.08
2022-12-25T14:40:27.948Z,9.05
2022-12-25T14:45:38.778Z,8.98
2022-12-25T14:50:42.552Z,8.92
2022-12-25T14:55:34.190Z,8.88
2022-12-25T15:00:33.040Z,8.87
2022-12-25T15:05:37.241Z,8.83
2022-12-25T15:10:58.850Z,8.77
2022-12-25T15:15:50.974Z,8.72
2022-12-25T15:20:42.729Z,8.65
2022-12-25T15:25:34.393Z,8.64
2022-12-25T15:30:26.040Z,8.62
2022-12-25T15:35:22.179Z,8.59
2022-12-25T15:40:16.252Z,8.58
2022-12-25T15:45:34.118Z,8.57
2022-12-25T15:50:25.894Z,8.55
2022-12-25T15:55:17.807Z,8.53
2022-12-25T16:00:16.580Z,8.51
2022-12-25T16:05:10.556Z,8.49
2022-12-25T16:10:02.551Z,8.50
2022-12-25T16:14:54.246Z,8.49
2022-12-25T16:19:46.052Z,8.47
2022-12-25T16:24:37.748Z,8.46
2022-12-25T16:29:29.679Z,8.46
2022-12-25T16:34:21.313Z,8.42
2022-12-25T16:39:12.971Z,8.35
2022-12-25T16:44:10.126Z,8.28
2022-12-25T16:49:02.095Z,8.24
2022-12-25T16:53:55.065Z,8.21
2022-12-25T16:58:47.886Z,8.19
2022-12-25T17:03:40.108Z,8.19
2022-12-25T17:08:32.270Z,8.15
2022-12-25T17:13:23.956Z,8.14
2022-12-25T17:18:15.601Z,8.09
2022-12-25T17:23:07.340Z,8.10
2022-12-25T17:27:59.095Z,8.03
2022-12-25T17:32:51.259Z,7.97
2022-12-25T17:37:43.225Z,7.91
2022-12-25T17:42:34.905Z,7.87
2022-12-25T17:47:26.631Z,7.80
2022-12-25T17:52:18.309Z,7.78
2022-12-25T17:57:10.246Z,7.73
2022-12-25T18:02:02.000Z,7.69
2022-12-25T18:06:53.870Z,7.66
2022-12-25T18:11:45.721Z,7.63
2022-12-25T18:16:39.718Z,7.58
2022-12-25T18:21:31.627Z,7.53
2022-12-25T18:26:25.084Z,7.47
2022-12-25T18:31:25.968Z,7.39
2022-12-25T18:36:21.389Z,7.34
2022-12-25T18:41:13.170Z,7.29
2022-12-25T18:46:05.590Z,7.26
2022-12-25T18:51:04.303Z,7.21
2022-12-25T18:55:57.880Z,7.19
2022-12-25T19:00:49.793Z,7.16
2022-12-25T19:05:41.624Z,7.12
2022-12-25T19:10:33.800Z,7.09
2022-12-25T19:15:25.519Z,7.05
2022-12-25T19:20:17.504Z,7.05
2022-12-25T19:25:09.395Z,7.01
2022-12-25T19:30:01.082Z,6.96
2022-12-25T19:34:52.779Z,6.92
2022-12-25T19:39:47.252Z,6.89
2022-12-25T19:44:38.915Z,6.88
2022-12-25T19:49:31.046Z,6.86
2022-12-25T19:54:22.873Z,6.86
2022-12-25T19:59:15.203Z,6.84
2022-12-25T20:04:08.934Z,6.82
2022-12-25T20:09:14.389Z,6.78
2022-12-25T20:14:08.077Z,6.75
2022-12-25T20:18:59.887Z,6.70
2022-12-25T20:23:53.056Z,6.67
2022-12-25T20:28:45.815Z,6.66
2022-12-25T20:33:37.740Z,6.65
2022-12-25T20:38:30.704Z,6.61
2022-12-25T20:43:22.519Z,6.62
2022-12-25T20:48:14.286Z,6.63
2022-12-25T20:53:05.831Z,6.64
2022-12-25T20:57:57.545Z,6.64
2022-12-25T21:02:49.473Z,6.67
2022-12-25T21:07:41.503Z,6.70
2022-12-25T21:12:33.231Z,6.73
2022-12-25T21:17:24.960Z,6.73
2022-12-25T21:22:16.685Z,6.77
2022-12-25T21:27:08.285Z,6.78
2022-12-25T21:32:19.000Z,6.76
2022-12-25T21:37:10.869Z,6.74
2022-12-25T21:42:04.704Z,6.75
2022-12-25T21:46:56.494Z,6.76
2022-12-25T21:52:06.781Z,6.75
2022-12-25T21:56:58.489Z,6.78
2022-12-25T22:01:51.754Z,6.75
2022-12-25T22:07:02.528Z,6.70
2022-12-25T22:12:13.019Z,6.69
2022-12-25T22:17:24.618Z,6.70
2022-12-25T22:22:21.278Z,6.67
2022-12-25T22:27:13.281Z,6.63
2022-12-25T22:32:06.553Z,6.63
2022-12-25T22:36:59.010Z,6.65
2022-12-25T22:41:50.987Z,6.65
2022-12-25T22:46:42.731Z,6.63
2022-12-25T22:51:34.503Z,6.63
2022-12-25T22:56:26.284Z,6.67
2022-12-25T23:01:18.324Z,6.69
2022-12-25T23:06:10.303Z,6.71
2022-12-25T23:11:05.524Z,6.75
2022-12-25T23:15:57.228Z,6.77
2022-12-25T23:21:07.640Z,6.77
2022-12-25T23:26:08.565Z,6.76
2022-12-25T23:31:00.451Z,6.81
2022-12-25T23:35:52.151Z,6.84
2022-12-25T23:40:43.851Z,6.86
2022-12-25T23:45:35.547Z,6.85
2022-12-25T23:50:27.369Z,6.87
2022-12-25T23:55:19.049Z,6.89
